Time;durP1;ratioP1;P1;durP2;ratioP2;P2;SDS_P1;SDS_P2;PMS_P1;PMS_P2;Temp;Humidity;BMP_temperature;BMP_pressure;BME280_temperature;BME280_humidity;BME280_pressure;Samples;Min_cycle;Max_cycle;Signal;HPM_P1;HPM_P2
2022/01/17 00:01:05;;;;;;;;;37.25;33.25;;;;;7.37;81.58;102792.94;5142266;27;45340;-77
2022/01/17 00:03:31;;;;;;;;;44.75;39.00;;;;;7.29;82.27;102782.03;5125062;27;45311;-76
2022/01/17 00:05:56;;;;;;;;;43.25;34.25;;;;;7.25;82.33;102773.91;5109945;27;45493;-75
2022/01/17 00:08:22;;;;;;;;;32.00;28.50;;;;;7.26;82.47;102784.50;5110994;27;45404;-78
2022/01/17 00:10:47;;;;;;;;;43.00;33.50;;;;;7.22;82.09;102777.28;5114057;27;44770;-77
2022/01/17 00:13:22;;;;;;;;;35.50;31.00;;;;;7.19;81.94;102773.63;5134120;27;45304;-77
2022/01/17 00:15:52;;;;;;;;;39.50;36.00;;;;;7.30;81.83;102788.19;5133057;27;45562;-77
2022/01/17 00:20:45;;;;;;;;;36.75;32.50;;;;;7.36;82.21;102799.00;5129604;27;45702;-76
2022/01/17 00:23:13;;;;;;;;;35.75;33.00;;;;;7.33;82.33;102785.72;5131552;27;45324;-75
2022/01/17 00:25:38;;;;;;;;;42.50;33.50;;;;;7.34;81.90;102784.91;5134910;27;46586;-77
2022/01/17 00:28:04;;;;;;;;;46.00;35.50;;;;;7.37;82.04;102779.84;5118913;27;44745;-76
2022/01/17 00:30:29;;;;;;;;;40.00;33.00;;;;;7.33;82.61;102772.63;5133787;27;45229;-77
2022/01/17 00:32:55;;;;;;;;;42.00;37.00;;;;;7.21;81.57;102751.91;5113133;27;45202;-77
2022/01/17 00:35:20;;;;;;;;;36.75;30.25;;;;;7.35;82.86;102778.81;5124964;27;46024;-77
2022/01/17 00:37:46;;;;;;;;;40.00;32.25;;;;;7.19;81.75;102739.53;5121750;27;45412;-77
2022/01/17 00:40:12;;;;;;;;;41.75;36.75;;;;;7.36;82.25;102784.19;5119143;27;45221;-76
2022/01/17 00:42:38;;;;;;;;;37.00;30.75;;;;;7.26;82.70;102767.84;5100769;27;45638;-77
2022/01/17 00:45:06;;;;;;;;;36.50;32.25;;;;;7.40;82.51;102788.75;5118865;27;47350;-76
2022/01/17 00:47:32;;;;;;;;;35.25;32.00;;;;;7.34;82.15;102777.94;5118962;27;45373;-76
2022/01/17 00:49:58;;;;;;;;;37.75;30.75;;;;;7.43;82.99;102790.63;5119234;27;45713;-77
2022/01/17 00:52:23;;;;;;;;;36.75;34.75;;;;;7.33;82.85;102770.00;5119336;27;45363;-76
2022/01/17 00:54:48;;;;;;;;;39.25;36.25;;;;;7.38;82.44;102776.41;5118742;27;47331;-77
2022/01/17 00:57:14;;;;;;;;;34.00;30.75;;;;;7.40;83.12;102788.75;5100211;27;45430;-76
2022/01/17 00:59:39;;;;;;;;;42.50;37.25;;;;;7.40;82.23;102785.22;5118333;27;45914;-74
2022/01/17 01:02:04;;;;;;;;;45.00;36.50;;;;;7.30;81.93;102762.88;5108581;27;45347;-77
2022/01/17 01:04:30;;;;;;;;;19.50;14.50;;;;;7.37;82.04;102772.88;5119001;27;45610;-77
2022/01/17 01:06:55;;;;;;;;;42.00;35.25;;;;;7.28;82.17;102759.28;5118722;27;45320;-77
2022/01/17 01:09:21;;;;;;;;;41.75;37.25;;;;;7.40;82.74;102782.59;5118673;27;45587;-77
2022/01/17 01:11:46;;;;;;;;;29.75;27.50;;;;;7.45;82.70;102788.13;5119042;27;45210;-75
2022/01/17 01:14:12;;;;;;;;;34.75;31.00;;;;;7.42;82.06;102784.47;5118569;27;45326;-74
2022/01/17 01:16:37;;;;;;;;;43.75;39.00;;;;;7.40;82.40;102769.50;5118524;27;45548;-77
2022/01/17 01:19:08;;;;;;;;;38.00;35.25;;;;;7.40;81.92;102769.50;5118603;27;45160;-77
2022/01/17 01:29:33;;;;;;;;;40.50;35.50;;;;;7.48;82.54;102769.91;5118497;27;45403;-78
2022/01/17 01:32:04;;;;;;;;;52.25;40.25;;;;;7.53;81.59;102784.16;5121987;27;45410;-76
2022/01/17 01:34:40;;;;;;;;;41.75;38.00;;;;;7.40;82.36;102754.66;5121770;27;47367;-77
2022/01/17 01:37:06;;;;;;;;;44.00;37.75;;;;;7.48;82.37;102768.19;5103453;27;45253;-76
2022/01/17 01:39:32;;;;;;;;;47.00;37.50;;;;;7.57;81.60;102783.50;5122118;27;45178;-77
2022/01/17 01:41:58;;;;;;;;;37.75;34.25;;;;;7.54;82.13;102778.06;5103377;27;45576;-77
2022/01/17 01:44:25;;;;;;;;;42.75;35.50;;;;;7.39;81.32;102741.47;5121819;27;45240;-76
2022/01/17 01:46:53;;;;;;;;;39.00;33.00;;;;;7.65;82.42;102790.97;5121787;27;45341;-78
2022/01/17 01:49:21;;;;;;;;;33.50;33.25;;;;;7.54;82.03;102778.06;5122120;27;45324;-77
2022/01/17 01:51:47;;;;;;;;;46.50;38.50;;;;;7.67;81.55;102796.28;5121984;27;45520;-77
2022/01/17 01:54:14;;;;;;;;;47.50;37.75;;;;;7.58;82.12;102785.31;5121527;27;46449;-77
2022/01/17 01:56:43;;;;;;;;;37.75;35.00;;;;;7.57;81.49;102775.63;5121412;27;45325;-77
2022/01/17 01:59:09;;;;;;;;;38.50;36.75;;;;;7.53;81.51;102773.66;5121711;27;45263;-77
2022/01/17 02:01:34;;;;;;;;;41.50;33.50;;;;;7.69;82.26;102803.41;5121602;27;45222;-77
2022/01/17 02:04:01;;;;;;;;;45.50;36.25;;;;;7.52;82.14;102770.13;5117315;27;46733;-74
2022/01/17 02:06:26;;;;;;;;;42.25;34.00;;;;;7.64;81.75;102791.78;5135341;27;45429;-75
2022/01/17 02:08:51;;;;;;;;;39.50;35.50;;;;;7.66;81.97;102795.38;5131970;27;45313;-77
2022/01/17 02:11:17;;;;;;;;;50.25;36.50;;;;;7.75;81.69;102810.69;5128743;27;46071;-73
2022/01/17 02:13:43;;;;;;;;;34.50;32.50;;;;;7.71;81.32;102795.59;5138552;27;46483;-76
2022/01/17 02:16:12;;;;;;;;;41.50;37.00;;;;;7.67;82.46;102802.41;5138706;27;45222;-77
2022/01/17 02:18:38;;;;;;;;;41.75;36.75;;;;;7.67;81.78;102791.03;5119980;27;45401;-76
2022/01/17 02:23:48;;;;;;;;;39.00;35.50;;;;;7.74;82.08;102808.91;5121429;27;45994;-77
2022/01/17 02:26:14;;;;;;;;;39.25;33.50;;;;;7.70;81.71;102799.94;5121499;27;45356;-75
2022/01/17 02:28:48;;;;;;;;;40.25;36.25;;;;;7.73;81.46;102796.59;5121250;27;45164;-77
2022/01/17 02:31:15;;;;;;;;;43.75;38.00;;;;;7.63;82.25;102775.94;5121118;27;45320;-76
2022/01/17 02:33:40;;;;;;;;;47.00;36.50;;;;;7.65;81.61;102783.09;5121005;27;45300;-76
2022/01/17 02:36:06;;;;;;;;;43.25;40.50;;;;;7.57;81.52;102778.25;5120902;27;45353;-75
2022/01/17 02:38:31;;;;;;;;;46.75;39.50;;;;;7.51;82.42;102755.22;5124596;27;45248;-74
2022/01/17 02:40:57;;;;;;;;;41.00;38.00;;;;;7.64;82.17;102783.91;5139865;27;45297;-73
2022/01/17 02:43:24;;;;;;;;;45.75;40.25;;;;;7.32;82.36;102727.13;5140123;27;45477;-76
2022/01/17 02:48:21;;;;;;;;;35.75;31.75;;;;;7.66;82.15;102786.59;5141765;27;45296;-76
2022/01/17 02:50:47;;;;;;;;;43.50;34.75;;;;;7.63;82.97;102778.56;5141831;27;45217;-76
2022/01/17 02:53:13;;;;;;;;;44.50;35.00;;;;;7.54;82.60;102771.13;5140447;27;45383;-77
2022/01/17 02:55:44;;;;;;;;;42.50;38.75;;;;;7.59;82.08;102780.13;5141329;27;45315;-77
2022/01/17 02:58:10;;;;;;;;;41.75;37.00;;;;;7.51;81.86;102773.59;5141675;27;45249;-76
2022/01/17 03:00:35;;;;;;;;;39.75;34.50;;;;;7.42;82.87;102771.38;5141532;27;45575;-77
2022/01/17 03:03:01;;;;;;;;;42.00;38.00;;;;;7.29;83.05;102757.56;5129013;27;45807;-77
2022/01/17 03:05:26;;;;;;;;;45.50;37.75;;;;;7.39;82.18;102773.84;5120565;27;45221;-77
2022/01/17 03:07:52;;;;;;;;;40.50;39.25;;;;;7.32;83.12;102768.19;5120527;27;45220;-76
2022/01/17 03:12:46;;;;;;;;;34.75;32.75;;;;;7.37;82.30;102783.34;5120399;27;46014;-75
2022/01/17 03:15:13;;;;;;;;;41.00;36.25;;;;;7.48;82.99;102804.00;5120738;27;45303;-77
2022/01/17 03:17:38;;;;;;;;;37.25;34.25;;;;;7.44;82.55;102813.41;5139913;27;45538;-77
2022/01/17 03:20:04;;;;;;;;;44.50;35.50;;;;;7.45;82.64;102801.22;5141264;27;45455;-75
2022/01/17 03:22:30;;;;;;;;;41.50;36.50;;;;;7.42;83.15;102794.97;5124410;27;45423;-76
2022/01/17 03:24:55;;;;;;;;;44.50;37.50;;;;;7.41;83.23;102800.16;5120284;27;45286;-76
2022/01/17 03:27:20;;;;;;;;;48.25;39.50;;;;;7.52;82.86;102817.34;5120141;27;45234;-77
2022/01/17 03:29:46;;;;;;;;;39.00;37.25;;;;;7.38;82.45;102789.50;5120773;27;45378;-77
2022/01/17 03:32:11;;;;;;;;;48.50;40.25;;;;;7.47;81.87;102803.09;5119684;27;46699;-77
2022/01/17 03:34:39;;;;;;;;;25.75;25.25;;;;;7.56;82.08;102815.81;5120022;27;45225;-77
2022/01/17 03:37:05;;;;;;;;;34.75;34.75;;;;;7.48;82.98;102809.25;5119142;27;45442;-75
2022/01/17 03:39:30;;;;;;;;;43.75;32.75;;;;;7.53;82.51;102821.75;5123979;27;45488;-78
2022/01/17 03:41:55;;;;;;;;;45.25;34.25;;;;;7.49;82.70;102808.44;5134583;27;46247;-77
2022/01/17 03:44:21;;;;;;;;;32.50;32.50;;;;;7.55;81.76;102816.63;5140717;27;45253;-77
2022/01/17 03:46:46;;;;;;;;;38.00;33.25;;;;;7.52;81.59;102813.81;5122888;27;45653;-77
2022/01/17 03:49:12;;;;;;;;;42.50;36.75;;;;;7.54;82.09;102822.66;5120329;27;45404;-77
2022/01/17 03:51:37;;;;;;;;;37.25;33.25;;;;;7.47;82.17;102815.31;5119742;27;45504;-76
2022/01/17 03:54:03;;;;;;;;;48.75;39.50;;;;;7.32;82.79;102797.94;5099732;27;45421;-77
2022/01/17 03:56:28;;;;;;;;;36.50;35.50;;;;;7.36;82.46;102807.78;5101161;27;45477;-76
2022/01/17 03:58:53;;;;;;;;;41.25;37.00;;;;;7.32;81.59;102805.78;5102094;27;45320;-75
2022/01/17 04:01:19;;;;;;;;;46.75;41.25;;;;;7.26;82.05;102802.88;5139033;27;47592;-74
2022/01/17 04:03:46;;;;;;;;;40.50;36.00;;;;;7.49;82.35;102843.41;5125792;27;45405;-75
2022/01/17 04:06:14;;;;;;;;;40.00;37.50;;;;;7.34;81.80;102819.88;5119715;27;45908;-76
2022/01/17 04:08:40;;;;;;;;;40.50;36.00;;;;;7.46;81.82;102842.38;5119478;27;45330;-75
2022/01/17 04:11:05;;;;;;;;;44.50;39.50;;;;;7.48;81.64;102854.72;5137979;27;45381;-76
2022/01/17 04:13:32;;;;;;;;;36.75;35.00;;;;;7.40;81.90;102835.94;5139927;27;45335;-74
2022/01/17 04:15:58;;;;;;;;;49.00;42.00;;;;;7.28;81.65;102814.31;5140162;27;45469;-76
2022/01/17 04:18:24;;;;;;;;;42.25;39.50;;;;;7.40;81.67;102846.44;5140410;27;45364;-75
2022/01/17 04:20:50;;;;;;;;;54.25;37.00;;;;;7.51;81.01;102862.75;5139558;27;45674;-76
2022/01/17 04:23:17;;;;;;;;;52.50;42.75;;;;;7.46;81.41;102850.22;5121427;27;45219;-76
2022/01/17 04:25:43;;;;;;;;;56.25;43.50;;;;;7.51;81.79;102861.84;5138929;27;45448;-76
2022/01/17 04:28:11;;;;;;;;;53.00;42.00;;;;;7.43;81.26;102843.06;5119512;27;45201;-76
2022/01/17 04:30:38;;;;;;;;;57.75;41.00;;;;;7.60;81.37;102864.97;5100681;27;46614;-77
2022/01/17 04:33:04;;;;;;;;;46.50;41.50;;;;;7.61;81.44;102858.91;5118917;27;45752;-76
2022/01/17 04:35:30;;;;;;;;;46.25;41.25;;;;;7.52;80.47;102846.19;5119546;27;45274;-75
2022/01/17 04:38:05;;;;;;;;;40.00;39.00;;;;;7.49;80.12;102830.31;5136905;27;45450;-72
2022/01/17 04:40:36;;;;;;;;;51.00;39.75;;;;;7.46;80.77;102822.28;5140002;27;46221;-75
2022/01/17 04:43:14;;;;;;;;;50.25;39.50;;;;;7.39;80.75;102812.28;5119042;27;45294;-76
2022/01/17 04:45:40;;;;;;;;;40.25;35.75;;;;;7.62;80.21;102851.09;5118958;27;45286;-77
2022/01/17 04:48:05;;;;;;;;;44.00;37.25;;;;;7.62;79.26;102861.59;5119312;27;45214;-77
2022/01/17 04:50:31;;;;;;;;;50.25;40.25;;;;;7.60;80.33;102857.09;5126008;27;46979;-75
2022/01/17 04:52:59;;;;;;;;;41.50;38.00;;;;;7.58;79.63;102851.78;5139652;27;45282;-76
2022/01/17 04:55:26;;;;;;;;;45.75;39.25;;;;;7.59;79.67;102850.06;5137941;27;45404;-77
2022/01/17 04:57:52;;;;;;;;;40.25;32.75;;;;;7.68;78.99;102864.56;5119068;27;45317;-76
2022/01/17 05:00:20;;;;;;;;;47.50;40.25;;;;;7.58;79.31;102848.25;5118706;27;47136;-77
2022/01/17 05:02:45;;;;;;;;;43.50;38.75;;;;;7.64;79.45;102859.97;5104514;27;45223;-76
2022/01/17 05:05:12;;;;;;;;;44.50;37.25;;;;;7.58;79.17;102856.13;5097823;27;45645;-76
2022/01/17 05:07:39;;;;;;;;;43.50;39.50;;;;;7.42;79.05;102844.78;5098057;27;45215;-75
2022/01/17 05:10:07;;;;;;;;;36.25;35.00;;;;;7.38;79.50;102860.28;5098173;27;46787;-74
2022/01/17 05:12:33;;;;;;;;;39.50;36.00;;;;;7.25;80.42;102861.31;5098343;27;45442;-74
2022/01/17 05:14:59;;;;;;;;;37.75;35.00;;;;;7.08;80.20;102856.91;5098115;27;45342;-73
2022/01/17 05:19:57;;;;;;;;;51.25;38.50;;;;;6.95;81.11;102883.22;5118209;27;45247;-75
2022/01/17 05:22:26;;;;;;;;;40.25;37.00;;;;;6.79;81.09;102869.28;5117908;27;45444;-75
2022/01/17 05:24:51;;;;;;;;;41.00;35.25;;;;;6.80;81.45;102880.66;5118727;27;45361;-75
2022/01/17 05:27:17;;;;;;;;;34.00;31.75;;;;;6.65;81.99;102864.94;5118753;27;45218;-76
2022/01/17 05:29:42;;;;;;;;;47.00;37.75;;;;;6.64;82.05;102876.25;5118494;27;45249;-73
2022/01/17 05:32:08;;;;;;;;;44.75;37.00;;;;;6.61;82.19;102889.16;5100996;27;45398;-75
2022/01/17 05:34:34;;;;;;;;;35.75;34.50;;;;;6.47;81.92;102880.50;5116803;27;45286;-76
2022/01/17 05:37:03;;;;;;;;;42.75;37.00;;;;;6.41;82.27;102876.59;5118257;27;45530;-75
2022/01/17 05:39:28;;;;;;;;;44.75;35.00;;;;;6.23;82.81;102859.00;5118019;27;47036;-75
2022/01/17 05:41:54;;;;;;;;;43.75;34.75;;;;;6.17;82.76;102863.00;5118111;27;45257;-76
2022/01/17 05:44:19;;;;;;;;;35.00;30.50;;;;;6.14;83.06;102865.41;5117928;27;45752;-75
2022/01/17 05:46:44;;;;;;;;;34.25;33.00;;;;;6.10;82.88;102881.75;5104821;27;45408;-74
2022/01/17 05:49:10;;;;;;;;;38.50;35.75;;;;;6.10;83.60;102887.88;5103495;27;47056;-75
2022/01/17 05:51:35;;;;;;;;;38.25;28.00;;;;;6.10;83.58;102894.84;5118009;27;45242;-74
2022/01/17 05:54:00;;;;;;;;;47.25;37.50;;;;;6.09;83.63;102904.41;5116390;27;45240;-75
2022/01/17 05:56:26;;;;;;;;;22.00;19.25;;;;;6.07;83.80;102913.88;5116144;27;45171;-74
2022/01/17 05:58:51;;;;;;;;;38.25;32.25;;;;;5.85;84.04;102871.47;5117846;27;45265;-76
2022/01/17 06:01:17;;;;;;;;;42.00;36.25;;;;;6.04;84.10;102897.06;5119161;27;45233;-75
2022/01/17 06:03:42;;;;;;;;;40.75;34.75;;;;;6.04;83.18;102894.47;5125797;27;45427;-76
2022/01/17 06:06:07;;;;;;;;;35.25;33.25;;;;;6.04;83.53;102879.66;5118247;27;45307;-76
2022/01/17 06:08:33;;;;;;;;;40.00;35.75;;;;;6.18;83.19;102894.50;5116418;27;47970;-76
2022/01/17 06:11:00;;;;;;;;;34.00;30.75;;;;;6.17;82.92;102895.31;5138919;27;45412;-76
2022/01/17 06:13:25;;;;;;;;;39.67;35.67;;;;;6.01;83.36;102876.88;5133711;27;45509;-75
2022/01/17 06:15:51;;;;;;;;;37.25;32.50;;;;;5.98;82.79;102876.69;5119587;27;45313;-77
2022/01/17 06:18:16;;;;;;;;;41.50;33.75;;;;;5.97;83.31;102867.94;5120061;27;45354;-76
2022/01/17 06:20:42;;;;;;;;;22.50;22.00;;;;;6.19;83.09;102904.13;5102483;27;45615;-76
2022/01/17 06:23:07;;;;;;;;;35.25;30.00;;;;;6.09;82.97;102893.03;5120850;27;45465;-76
2022/01/17 06:25:33;;;;;;;;;32.50;30.00;;;;;6.06;83.14;102896.38;5131871;27;45530;-74
2022/01/17 06:27:59;;;;;;;;;27.25;27.25;;;;;6.06;83.44;102904.22;5125485;27;46166;-76
2022/01/17 06:30:25;;;;;;;;;36.00;31.50;;;;;5.98;83.55;102906.38;5124750;27;45312;-75
2022/01/17 06:32:50;;;;;;;;;32.25;29.75;;;;;5.99;83.79;102926.50;5126401;27;45345;-73
2022/01/17 06:35:16;;;;;;;;;40.75;36.50;;;;;5.97;83.40;102917.66;5138122;27;45436;-77
2022/01/17 06:37:42;;;;;;;;;35.50;31.75;;;;;5.96;83.57;102921.09;5139331;27;45314;-78
2022/01/17 06:40:07;;;;;;;;;48.67;41.33;;;;;6.04;84.48;102926.75;5138872;27;45374;-77
2022/01/17 06:42:34;;;;;;;;;41.00;37.67;;;;;6.00;83.92;102925.69;5137012;27;45419;-76
2022/01/17 06:45:04;;;;;;;;;43.33;40.33;;;;;6.13;84.55;102953.47;5141911;27;45229;-76
2022/01/17 06:47:34;;;;;;;;;40.50;35.75;;;;;6.00;84.67;102927.41;5141236;27;45452;-75
2022/01/17 06:49:59;;;;;;;;;40.50;31.50;;;;;6.26;84.37;102970.84;5127038;27;45457;-76
2022/01/17 06:52:25;;;;;;;;;43.25;37.75;;;;;6.26;84.55;102971.75;5120988;27;45532;-77
2022/01/17 06:54:52;;;;;;;;;37.00;36.50;;;;;6.20;83.73;102946.91;5102194;27;45671;-78
2022/01/17 06:57:18;;;;;;;;;41.00;36.25;;;;;6.39;84.27;102955.06;5120362;27;46158;-77
2022/01/17 06:59:43;;;;;;;;;42.33;37.00;;;;;6.46;83.83;102951.09;5123950;27;45349;-77
2022/01/17 07:02:08;;;;;;;;;38.25;31.25;;;;;6.54;84.05;102945.50;5120479;27;45796;-77
2022/01/17 07:04:34;;;;;;;;;42.33;38.00;;;;;6.47;83.59;102930.25;5120417;27;45436;-77
2022/01/17 07:07:00;;;;;;;;;44.50;38.00;;;;;6.55;83.55;102949.03;5120857;27;46454;-76
2022/01/17 07:09:28;;;;;;;;;51.00;39.00;;;;;6.55;83.34;102944.69;5120182;27;46167;-77
2022/01/17 07:11:53;;;;;;;;;46.00;39.75;;;;;6.61;83.89;102952.03;5101599;27;45290;-77
2022/01/17 07:14:19;;;;;;;;;45.33;37.67;;;;;6.56;82.76;102948.22;5120647;27;45213;-77
2022/01/17 07:16:45;;;;;;;;;35.00;31.75;;;;;6.68;82.32;102977.72;5119367;27;46884;-78
2022/01/17 07:19:11;;;;;;;;;42.50;34.75;;;;;6.66;83.18;102989.84;5122166;27;45346;-74
2022/01/17 07:21:37;;;;;;;;;45.50;37.25;;;;;6.63;82.49;103012.34;5131254;27;45362;-75
2022/01/17 07:24:03;;;;;;;;;44.50;37.75;;;;;6.71;82.80;103025.09;5128760;27;45528;-74
2022/01/17 07:26:29;;;;;;;;;43.67;38.33;;;;;6.48;82.14;102988.75;5136200;27;47731;-77
2022/01/17 07:28:54;;;;;;;;;39.50;34.25;;;;;6.62;82.19;103007.91;5136387;27;45515;-77
2022/01/17 07:31:19;;;;;;;;;45.00;39.75;;;;;6.58;82.42;102993.72;5122295;27;45239;-76
2022/01/17 07:33:45;;;;;;;;;39.50;37.50;;;;;6.63;82.00;103004.47;5122028;27;45511;-76
2022/01/17 07:36:16;;;;;;;;;39.50;34.50;;;;;6.58;82.90;103002.47;5119500;27;45699;-76
2022/01/17 07:38:41;;;;;;;;;45.00;41.25;;;;;6.51;82.29;102984.63;5119321;27;45333;-76
2022/01/17 07:41:08;;;;;;;;;32.75;32.75;;;;;6.51;83.07;103002.94;5126870;27;45305;-75
2022/01/17 07:43:37;;;;;;;;;41.75;35.50;;;;;6.37;83.18;102979.34;5124614;27;45455;-78
2022/01/17 07:46:04;;;;;;;;;46.33;41.33;;;;;6.34;83.25;102972.22;5129319;27;46555;-77
2022/01/17 07:48:56;;;;;;;;;29.75;28.50;;;;;6.36;82.67;102980.16;5126253;27;45471;-75
2022/01/17 07:51:24;;;;;;;;;36.00;34.50;;;;;6.39;83.06;102989.09;5125234;27;45480;-78
2022/01/17 07:53:50;;;;;;;;;44.50;38.25;;;;;6.44;83.31;103007.72;5127636;27;45238;-79
2022/01/17 07:56:15;;;;;;;;;49.25;38.25;;;;;6.44;82.92;103012.94;5127533;27;47007;-76
2022/01/17 07:58:41;;;;;;;;;35.50;35.50;;;;;6.41;82.54;103005.78;5126052;27;45318;-77
2022/01/17 08:01:08;;;;;;;;;47.25;38.75;;;;;6.44;82.84;103015.56;5124106;27;45538;-77
2022/01/17 08:03:34;;;;;;;;;41.67;38.33;;;;;6.37;82.47;103001.19;5127485;27;45480;-77
2022/01/17 08:06:00;;;;;;;;;39.00;35.67;;;;;6.17;83.19;102967.69;5130795;27;46045;-78
2022/01/17 08:08:25;;;;;;;;;53.33;42.00;;;;;6.36;83.17;103011.56;5126115;27;45488;-76
2022/01/17 08:10:51;;;;;;;;;38.50;37.25;;;;;6.43;82.18;103003.28;5109097;27;45460;-80
2022/01/17 08:13:18;;;;;;;;;46.75;38.00;;;;;6.50;83.38;103029.91;5130512;27;45395;-75
2022/01/17 08:15:45;;;;;;;;;43.33;36.33;;;;;6.42;82.61;102999.78;5129463;27;45414;-78
2022/01/17 08:18:11;;;;;;;;;36.00;36.00;;;;;6.57;82.66;103028.56;5129112;27;45439;-79
2022/01/17 08:20:36;;;;;;;;;39.00;33.00;;;;;6.64;82.09;103029.84;5132050;27;46195;-78
2022/01/17 08:23:02;;;;;;;;;49.00;38.33;;;;;6.54;82.03;103017.94;5132834;27;45800;-79
2022/01/17 08:25:27;;;;;;;;;44.33;40.00;;;;;6.53;82.32;103006.56;5129018;27;45500;-78
2022/01/17 08:27:53;;;;;;;;;50.67;39.33;;;;;6.49;81.22;102998.41;5131055;27;45571;-75
2022/01/17 08:30:18;;;;;;;;;37.25;37.25;;;;;6.65;82.14;103015.94;5131154;27;45573;-78
2022/01/17 08:32:44;;;;;;;;;40.00;33.25;;;;;6.60;81.29;102993.81;5130644;27;45537;-80
2022/01/17 08:35:11;;;;;;;;;42.75;38.00;;;;;6.86;81.14;103036.44;5126118;27;45459;-78
2022/01/17 08:37:37;;;;;;;;;50.33;40.00;;;;;6.82;80.46;103013.53;5128793;27;45433;-76
2022/01/17 08:40:05;;;;;;;;;40.50;35.00;;;;;6.92;80.92;103029.78;5117191;27;45478;-75
2022/01/17 08:42:33;;;;;;;;;44.50;39.75;;;;;7.03;80.87;103050.56;5114128;27;46987;-77
2022/01/17 08:44:59;;;;;;;;;41.00;37.50;;;;;7.07;80.06;103055.19;5119957;27;45589;-76
2022/01/17 08:47:25;;;;;;;;;45.50;36.00;;;;;7.13;80.73;103054.63;5121817;27;46797;-75
2022/01/17 08:49:51;;;;;;;;;43.00;40.67;;;;;7.17;80.28;103055.72;5129873;27;45432;-77
2022/01/17 08:52:17;;;;;;;;;47.75;40.75;;;;;6.98;79.98;103009.16;5125095;27;45578;-79
2022/01/17 08:54:44;;;;;;;;;52.25;44.75;;;;;7.45;79.69;103055.59;5125713;27;46366;-79
2022/01/17 08:57:10;;;;;;;;;52.00;43.00;;;;;7.54;79.37;103032.47;5136797;27;45439;-78
2022/01/17 08:59:35;;;;;;;;;60.50;45.00;;;;;7.79;78.10;103024.28;5138309;27;45387;-77
2022/01/17 09:02:01;;;;;;;;;40.25;39.00;;;;;7.96;77.19;103007.72;5130840;27;45495;-76
2022/01/17 09:04:26;;;;;;;;;46.50;39.00;;;;;8.29;75.70;103017.44;5131563;27;46512;-78
2022/01/17 09:06:52;;;;;;;;;49.25;40.25;;;;;8.37;75.35;103004.72;5131796;27;45507;-75
2022/01/17 09:09:17;;;;;;;;;47.75;35.75;;;;;8.66;74.62;103044.78;5128941;27;45448;-76
2022/01/17 09:11:43;;;;;;;;;43.25;39.25;;;;;8.87;74.53;103060.75;5130714;27;45407;-75
2022/01/17 09:14:09;;;;;;;;;40.50;37.00;;;;;8.81;73.78;103066.56;5134805;27;45687;-75
2022/01/17 09:16:35;;;;;;;;;47.00;38.25;;;;;8.49;73.80;103010.63;5135188;27;45338;-75
2022/01/17 09:19:02;;;;;;;;;41.00;38.50;;;;;8.49;74.21;103023.75;5132302;27;45475;-76
2022/01/17 09:21:28;;;;;;;;;54.25;41.25;;;;;8.75;73.68;103067.16;5124922;27;46500;-77
2022/01/17 09:23:57;;;;;;;;;46.25;38.75;;;;;8.66;73.56;103039.50;5134623;27;46449;-76
2022/01/17 09:26:25;;;;;;;;;43.75;34.25;;;;;8.63;73.34;103039.34;5131286;27;45436;-81
2022/01/17 09:28:51;;;;;;;;;41.00;37.00;;;;;8.83;73.60;103106.97;5131931;27;45500;-76
2022/01/17 09:31:17;;;;;;;;;46.25;40.25;;;;;8.71;73.85;103101.06;5134598;27;45402;-77
2022/01/17 09:33:42;;;;;;;;;38.50;37.00;;;;;8.66;73.52;103102.56;5130027;27;46465;-77
2022/01/17 09:36:08;;;;;;;;;43.50;33.00;;;;;8.70;74.13;103120.28;5131518;27;45451;-75
2022/01/17 09:38:33;;;;;;;;;42.25;37.00;;;;;8.60;74.00;103112.75;5135354;27;45663;-76
2022/01/17 09:41:00;;;;;;;;;49.00;39.25;;;;;8.53;73.73;103095.75;5127688;27;45550;-78
2022/01/17 09:43:25;;;;;;;;;46.75;39.25;;;;;8.73;73.26;103123.06;5106113;27;47396;-79
2022/01/17 09:45:51;;;;;;;;;44.50;37.25;;;;;8.49;73.43;103071.06;5130079;27;45480;-78
2022/01/17 09:48:20;;;;;;;;;36.50;33.25;;;;;8.43;73.64;103052.31;5133582;27;45320;-77
2022/01/17 09:50:59;;;;;;;;;48.50;41.75;;;;;8.73;73.56;103102.94;5133493;27;45449;-78
2022/01/17 09:53:28;;;;;;;;;39.75;34.00;;;;;8.86;73.28;103096.63;5133421;27;45708;-80
2022/01/17 09:55:58;;;;;;;;;45.50;39.25;;;;;9.06;72.76;103097.66;5134158;27;46315;-74
2022/01/17 09:58:24;;;;;;;;;53.25;39.25;;;;;8.96;71.60;103076.97;5137846;27;45487;-76
2022/01/17 10:00:50;;;;;;;;;41.25;37.75;;;;;9.01;71.52;103092.16;5132605;27;45512;-78
2022/01/17 10:03:19;;;;;;;;;43.75;38.75;;;;;9.24;71.51;103147.66;5132039;27;45575;-78
2022/01/17 10:05:44;;;;;;;;;46.00;37.25;;;;;9.18;71.40;103145.63;5140452;27;45457;-78
2022/01/17 10:08:17;;;;;;;;;53.00;43.00;;;;;9.11;71.82;103146.13;5138460;27;45471;-81
2022/01/17 10:10:45;;;;;;;;;48.25;38.50;;;;;9.11;71.79;103149.63;5135258;27;45745;-76
2022/01/17 10:13:23;;;;;;;;;35.00;33.25;;;;;8.84;71.55;103129.78;5131474;27;46239;-78
2022/01/17 10:16:05;;;;;;;;;42.00;37.25;;;;;9.03;72.00;103156.25;5138433;27;45415;-78
2022/01/17 10:18:50;;;;;;;;;46.75;39.50;;;;;8.83;72.18;103128.00;5137943;27;45421;-77
2022/01/17 10:21:49;;;;;;;;;41.25;35.50;;;;;9.02;72.08;103161.41;5131088;27;45611;-76
2022/01/17 10:35:30;;;;;;;;;48.50;40.50;;;;;9.03;71.09;103103.66;5132610;27;45846;-79
2022/01/17 10:38:06;;;;;;;;;40.75;36.75;;;;;9.23;71.28;103159.91;5137762;27;45540;-76
2022/01/17 10:40:37;;;;;;;;;50.75;42.00;;;;;9.17;71.16;103171.84;5161215;27;45412;-76
2022/01/17 10:43:04;;;;;;;;;45.00;39.00;;;;;9.09;71.25;103167.06;5132783;27;45497;-78
2022/01/17 10:45:37;;;;;;;;;46.25;37.00;;;;;8.98;71.65;103156.81;5112458;27;47326;-77
2022/01/17 10:48:03;;;;;;;;;46.00;39.25;;;;;9.13;71.75;103165.53;5133294;27;45516;-75
2022/01/17 10:50:50;;;;;;;;;51.25;38.50;;;;;9.11;71.65;103147.00;5130890;27;45555;-77
2022/01/17 10:53:16;;;;;;;;;44.00;39.00;;;;;9.23;71.17;103154.66;5134140;27;45454;-80
2022/01/17 10:55:48;;;;;;;;;44.00;39.25;;;;;9.20;71.04;103116.75;5133673;27;45496;-79
2022/01/17 10:58:40;;;;;;;;;45.75;37.75;;;;;9.18;70.88;103090.38;5130738;27;46148;-80
2022/01/17 11:01:10;;;;;;;;;47.25;40.75;;;;;9.48;70.05;103104.16;5136223;27;45415;-77
2022/01/17 11:03:37;;;;;;;;;43.00;39.25;;;;;11.07;67.10;103120.47;5128640;27;45507;-77
2022/01/17 11:06:09;;;;;;;;;45.50;38.00;;;;;11.39;65.33;103113.91;5135864;27;46575;-77
2022/01/17 11:08:38;;;;;;;;;45.50;38.50;;;;;13.22;61.09;103175.72;5131528;27;45382;-79
2022/01/17 11:11:07;;;;;;;;;41.75;37.25;;;;;15.18;55.75;103139.44;5131668;27;45399;-76
2022/01/17 11:13:35;;;;;;;;;51.25;42.00;;;;;15.49;53.18;103088.88;5131919;27;45492;-77
2022/01/17 11:16:04;;;;;;;;;44.50;36.25;;;;;14.67;54.08;103105.28;5131597;27;46456;-75
2022/01/17 11:18:31;;;;;;;;;53.25;39.50;;;;;14.04;56.27;103118.38;5137971;27;45438;-78
2022/01/17 11:21:10;;;;;;;;;46.25;39.50;;;;;13.72;56.76;103120.00;5138412;27;45471;-77
2022/01/17 11:23:37;;;;;;;;;43.00;36.75;;;;;13.33;57.90;103110.78;5133450;27;46070;-81
2022/01/17 11:26:05;;;;;;;;;45.75;37.50;;;;;12.81;58.57;103074.53;5133985;27;45678;-80
2022/01/17 11:28:33;;;;;;;;;53.25;38.75;;;;;12.82;59.60;103108.06;5129666;27;45491;-76
2022/01/17 11:31:02;;;;;;;;;47.00;35.75;;;;;12.37;60.11;103051.75;5147936;27;45328;-78
2022/01/17 11:33:28;;;;;;;;;37.25;33.50;;;;;12.16;60.62;103043.03;5133759;27;45427;-81
2022/01/17 11:35:54;;;;;;;;;42.25;35.50;;;;;11.89;60.65;103030.56;5134900;27;46044;-80
2022/01/17 11:38:27;;;;;;;;;40.75;38.00;;;;;12.11;61.86;103082.53;5134047;27;45424;-76
2022/01/17 11:40:53;;;;;;;;;45.00;38.00;;;;;11.81;61.55;103049.59;5137503;27;45394;-79
2022/01/17 11:43:21;;;;;;;;;52.25;39.50;;;;;11.96;61.32;103090.72;5139600;27;45510;-81
2022/01/17 11:45:48;;;;;;;;;46.25;38.25;;;;;11.50;62.58;103040.44;5135416;27;45541;-78
2022/01/17 11:48:28;;;;;;;;;42.00;37.50;;;;;11.57;63.06;103099.66;5139195;27;45319;-83